Time;durP1;ratioP1;P1;durP2;ratioP2;P2;SDS_P1;SDS_P2;PMS_P1;PMS_P2;Temp;Humidity;BMP_temperature;BMP_pressure;BME280_temperature;BME280_humidity;BME280_pressure;Samples;Min_cycle;Max_cycle;Signal;HPM_P1;HPM_P2
2023/09/15 00:04:39;;;;;;;7.50;6.80;;;13.40;99.90;;;14.25;96.69;98214.13;10314156;28;20378;-78
2023/09/15 00:09:43;;;;;;;7.38;6.72;;;13.50;99.90;;;14.13;97.49;98208.38;10318456;28;20242;-79
2023/09/15 00:14:46;;;;;;;7.20;6.47;;;13.40;99.90;;;14.24;96.65;98212.34;10311690;28;20239;-78
2023/09/15 00:19:51;;;;;;;6.43;5.75;;;13.40;99.90;;;14.25;96.86;98211.56;10311123;28;20365;-76
2023/09/15 00:24:55;;;;;;;5.93;5.53;;;13.40;99.90;;;14.25;96.30;98214.13;10310602;28;20318;-78
2023/09/15 00:29:58;;;;;;;5.60;5.10;;;13.40;99.90;;;14.16;95.60;98216.22;10318533;28;20231;-79
2023/09/15 00:35:04;;;;;;;5.82;5.32;;;13.30;99.90;;;14.10;96.41;98218.50;10318204;28;20315;-78
2023/09/15 00:40:09;;;;;;;6.15;5.53;;;13.20;99.90;;;14.01;96.52;98213.78;10315679;28;20832;-79
2023/09/15 00:45:14;;;;;;;6.28;5.63;;;13.10;99.90;;;13.84;97.02;98210.38;10316488;28;20235;-79
2023/09/15 00:50:23;;;;;;;6.10;5.55;;;13.10;99.90;;;13.76;97.68;98214.25;10312539;28;20538;-79
2023/09/15 00:55:27;;;;;;;6.00;5.28;;;13.00;99.90;;;13.76;97.66;98206.56;10314456;28;20234;-79
2023/09/15 01:00:31;;;;;;;6.20;5.55;;;13.00;99.90;;;13.66;97.04;98204.34;10314210;28;20247;-78
2023/09/15 01:05:36;;;;;;;5.78;5.30;;;12.90;99.90;;;13.69;97.18;98204.50;10321578;28;20239;-79
2023/09/15 01:10:42;;;;;;;6.22;5.72;;;12.80;99.90;;;13.65;96.93;98202.56;10331860;28;20219;-77
2023/09/15 01:15:53;;;;;;;5.53;5.13;;;12.80;99.90;;;13.57;97.11;98206.44;10316742;28;20235;-80
2023/09/15 01:21:54;;;;;;;6.03;5.53;;;12.70;99.90;;;13.50;96.54;98200.09;10306479;28;20316;-80
2023/09/15 01:27:34;;;;;;;5.68;5.18;;;12.70;99.90;;;13.41;97.02;98197.06;10308258;28;20230;-79
2023/09/15 01:32:41;;;;;;;6.05;5.50;;;12.60;99.90;;;13.40;96.92;98185.94;10310578;28;20309;-79
2023/09/15 01:37:44;;;;;;;5.82;5.32;;;12.60;99.90;;;13.42;97.32;98189.47;10307861;28;20250;-80
2023/09/15 01:42:50;;;;;;;6.63;6.13;;;12.60;99.90;;;13.50;96.29;98193.28;10305892;28;20215;-79
2023/09/15 01:47:55;;;;;;;5.35;4.85;;;12.70;99.90;;;13.40;96.66;98198.75;10316310;28;20254;-80
2023/09/15 01:52:59;;;;;;;5.90;5.30;;;12.50;99.90;;;13.34;95.14;98195.00;10321246;28;20218;-80
2023/09/15 01:58:02;;;;;;;6.38;5.07;;;12.40;99.90;;;13.27;95.46;98183.53;10312036;28;20285;-79
2023/09/15 02:03:07;;;;;;;6.05;5.57;;;12.40;99.90;;;13.13;96.03;98189.59;10306762;28;20757;-80
2023/09/15 02:08:10;;;;;;;5.70;5.20;;;12.30;99.90;;;13.11;96.22;98180.94;10306187;28;20786;-79
2023/09/15 02:13:14;;;;;;;6.18;5.55;;;12.30;99.90;;;13.01;96.74;98180.44;10314887;28;20227;-80
2023/09/15 02:18:20;;;;;;;6.05;5.53;;;12.20;99.90;;;13.05;97.07;98181.50;10313885;28;20246;-79
2023/09/15 02:23:24;;;;;;;5.85;5.35;;;12.30;99.90;;;13.03;96.92;98176.28;10310641;28;20318;-78
2023/09/15 02:28:27;;;;;;;5.68;5.28;;;12.20;99.90;;;12.97;97.59;98183.66;10308122;28;20254;-80
2023/09/15 02:33:33;;;;;;;6.05;5.45;;;12.20;99.90;;;13.02;97.36;98176.19;10311787;28;20223;-80
2023/09/15 02:38:36;;;;;;;5.63;5.22;;;12.30;99.90;;;13.07;96.19;98190.16;10305544;28;20230;-80
2023/09/15 02:43:40;;;;;;;5.78;5.25;;;12.20;99.90;;;12.98;96.19;98190.53;10307780;28;20227;-78
2023/09/15 02:48:44;;;;;;;5.90;5.40;;;12.10;99.90;;;12.87;96.79;98186.53;10306967;28;20282;-79
2023/09/15 02:53:48;;;;;;;6.18;5.68;;;12.10;99.90;;;12.88;97.21;98192.53;10304384;28;20614;-78
2023/09/15 02:58:52;;;;;;;6.18;5.68;;;12.10;99.90;;;12.90;96.54;98184.13;10310038;28;20231;-77
2023/09/15 03:03:56;;;;;;;5.47;5.03;;;12.10;99.90;;;12.78;96.89;98175.78;10329528;28;20305;-79
2023/09/15 03:09:00;;;;;;;6.30;5.78;;;12.00;99.90;;;12.83;97.08;98185.50;10319280;28;20808;-78
2023/09/15 03:14:03;;;;;;;6.32;5.82;;;12.00;99.90;;;12.77;97.66;98174.03;10327464;28;20660;-79
2023/09/15 03:19:08;;;;;;;6.65;6.05;;;12.00;99.90;;;12.79;98.48;98172.41;10309046;28;20648;-78
2023/09/15 03:24:11;;;;;;;5.80;5.30;;;12.10;99.90;;;12.90;96.79;98181.56;10303538;28;20230;-78
2023/09/15 03:29:14;;;;;;;6.05;5.45;;;12.00;99.90;;;12.82;96.68;98180.28;10300928;28;20263;-79
2023/09/15 03:34:19;;;;;;;6.35;5.75;;;12.00;99.90;;;12.83;96.86;98169.22;10315103;28;20258;-78
2023/09/15 03:39:22;;;;;;;6.68;6.05;;;12.10;99.90;;;12.83;97.49;98169.22;10309818;28;20231;-77
2023/09/15 03:44:26;;;;;;;6.38;5.78;;;12.10;99.90;;;12.77;97.36;98163.78;10327543;28;20251;-81
2023/09/15 03:49:30;;;;;;;6.43;5.93;;;12.00;99.90;;;12.85;96.50;98168.50;10324491;28;20262;-79
2023/09/15 03:54:34;;;;;;;6.15;5.60;;;12.00;99.90;;;12.74;97.31;98163.59;10320618;28;20219;-81
2023/09/15 03:59:37;;;;;;;6.47;5.88;;;11.90;99.90;;;12.61;97.57;98168.06;10324147;28;20235;-81
2023/09/15 04:04:42;;;;;;;6.35;5.78;;;11.80;99.90;;;12.63;97.56;98163.91;10315282;28;20262;-80
2023/09/15 04:09:45;;;;;;;6.15;5.65;;;11.80;99.90;;;12.57;97.43;98161.00;10316053;28;20257;-78
2023/09/15 04:14:48;;;;;;;6.22;5.72;;;11.80;99.90;;;12.62;96.88;98157.03;10309768;28;20704;-83
2023/09/15 04:19:53;;;;;;;6.70;6.13;;;11.80;99.90;;;12.52;97.07;98153.88;10320639;28;20223;-81
2023/09/15 04:24:56;;;;;;;6.70;6.10;;;11.70;99.90;;;12.54;96.96;98153.16;10319952;28;20220;-81
2023/09/15 04:30:01;;;;;;;6.07;5.57;;;11.70;99.90;;;12.43;97.56;98151.69;10314661;28;20253;-83
2023/09/15 04:35:08;;;;;;;5.80;5.28;;;11.60;99.90;;;12.46;97.05;98154.41;10327798;28;20588;-80
2023/09/15 04:40:12;;;;;;;6.25;5.65;;;11.60;99.90;;;12.42;96.69;98144.81;10334484;28;20313;-82
2023/09/15 04:45:15;;;;;;;5.95;5.35;;;11.50;99.90;;;12.33;97.47;98152.88;10337497;28;20223;-81
2023/09/15 04:50:20;;;;;;;6.03;5.43;;;11.50;99.90;;;12.18;98.47;98158.03;10334030;28;20234;-82
2023/09/15 04:55:24;;;;;;;6.13;5.63;;;11.50;99.90;;;12.23;98.52;98158.28;10338004;28;21999;-82
2023/09/15 05:00:29;;;;;;;7.38;6.43;;;11.50;99.90;;;12.29;97.38;98145.81;10341774;28;20742;-80
2023/09/15 05:05:34;;;;;;;7.43;6.82;;;11.40;99.90;;;12.32;97.52;98153.66;10343046;28;20223;-81
2023/09/15 05:10:37;;;;;;;6.65;6.13;;;11.40;99.90;;;12.17;98.75;98143.44;10331519;28;20606;-81
2023/09/15 05:15:40;;;;;;;6.25;5.65;;;11.40;99.90;;;12.21;98.56;98143.63;10330558;28;20219;-82
2023/09/15 05:20:45;;;;;;;6.80;6.13;;;11.40;99.90;;;12.34;98.66;98146.06;10341317;28;20732;-81
2023/09/15 05:25:50;;;;;;;7.00;6.40;;;11.60;99.90;;;12.43;98.08;98146.56;10338442;28;20229;-80
2023/09/15 05:30:59;;;;;;;7.45;6.75;;;11.60;99.90;;;12.45;97.28;98152.66;10335344;28;20277;-80
2023/09/15 05:36:05;;;;;;;6.70;6.15;;;11.50;99.90;;;12.31;98.25;98157.03;10332999;28;20215;-81
2023/09/15 05:41:08;;;;;;;7.05;6.35;;;11.60;99.90;;;12.50;98.87;98158.91;10330780;28;20235;-80
2023/09/15 05:46:12;;;;;;;6.75;6.15;;;11.70;99.90;;;12.82;97.01;98165.78;10344889;28;20289;-81
2023/09/15 05:51:16;;;;;;;7.25;6.65;;;12.00;99.90;;;13.42;93.70;98174.06;10336335;28;20230;-80
2023/09/15 05:56:20;;;;;;;6.57;6.07;;;12.30;99.90;;;13.90;92.32;98161.88;10329285;28;20223;-80
2023/09/15 06:01:23;;;;;;;6.63;6.13;;;12.80;99.90;;;14.22;89.14;98156.50;10329981;28;20285;-79
2023/09/15 06:06:28;;;;;;;6.43;5.93;;;13.10;99.90;;;14.21;89.34;98160.78;10328922;28;20664;-79
2023/09/15 06:11:31;;;;;;;7.75;7.05;;;13.20;99.90;;;14.30;87.86;98156.06;10323013;28;20234;-78
2023/09/15 06:16:36;;;;;;;7.30;6.50;;;13.20;99.90;;;14.48;88.03;98168.03;10322391;28;20238;-79
2023/09/15 06:21:41;;;;;;;6.60;6.00;;;13.30;99.90;;;15.36;84.73;98167.72;10321186;28;20230;-79
2023/09/15 06:26:44;;;;;;;7.10;6.43;;;13.90;99.90;;;15.84;82.72;98155.19;10327479;28;20266;-79
2023/09/15 06:31:49;;;;;;;7.05;6.45;;;14.30;99.90;;;16.40;78.38;98154.00;10335100;28;20234;-79
2023/09/15 06:36:53;;;;;;;7.32;6.63;;;14.80;99.90;;;16.96;76.49;98156.97;10328452;28;20253;-81
2023/09/15 06:41:57;;;;;;;6.93;6.32;;;15.20;99.90;;;17.65;74.42;98162.00;10328196;28;20251;-79
2023/09/15 06:47:00;;;;;;;7.60;6.90;;;16.20;99.90;;;18.21;71.10;98152.69;10344458;28;20310;-82
2023/09/15 06:52:06;;;;;;;6.95;6.25;;;16.60;99.90;;;18.66;70.70;98150.63;10333969;28;20287;-81
2023/09/15 06:57:10;;;;;;;7.53;6.82;;;16.80;99.90;;;19.48;67.61;98147.75;10340980;28;20230;-81
2023/09/15 07:02:13;;;;;;;7.18;6.57;;;17.40;99.90;;;20.11;64.80;98146.78;10339258;28;20731;-81
2023/09/15 07:07:22;;;;;;;6.35;5.78;;;17.80;99.90;;;20.58;62.12;98140.13;10334186;28;20226;-81
2023/09/15 07:12:26;;;;;;;7.40;6.70;;;18.40;99.90;;;20.68;62.44;98143.78;10349169;28;20703;-81
2023/09/15 07:17:31;;;;;;;6.88;6.38;;;18.70;99.90;;;20.48;63.09;98144.19;10367041;28;20263;-80
2023/09/15 07:22:36;;;;;;;7.78;7.10;;;18.80;99.90;;;20.28;64.96;98150.66;10335014;28;20235;-80
2023/09/15 07:27:39;;;;;;;8.00;7.15;;;18.90;99.90;;;20.55;64.36;98155.66;10338716;28;20226;-81
2023/09/15 07:32:44;;;;;;;8.57;7.80;;;19.30;99.90;;;20.87;64.58;98153.75;10345013;28;20219;-81
2023/09/15 07:37:49;;;;;;;7.55;6.85;;;19.60;99.90;;;21.40;63.10;98140.06;10342455;28;20231;-81
2023/09/15 07:42:52;;;;;;;7.28;6.47;;;20.00;99.90;;;21.55;62.76;98140.38;10336949;28;20282;-81
2023/09/15 07:47:55;;;;;;;7.95;7.20;;;20.40;99.90;;;20.99;65.24;98140.13;10337738;28;20226;-81
2023/09/15 07:53:00;;;;;;;8.13;7.32;;;20.00;99.90;;;21.41;63.60;98135.78;10342146;28;20219;-80
2023/09/15 07:58:04;;;;;;;7.75;7.00;;;20.50;99.90;;;21.51;63.50;98128.16;10347902;28;20838;-81
2023/09/15 08:03:08;;;;;;;7.85;7.18;;;20.70;99.90;;;21.64;64.18;98124.06;10339996;28;20269;-80
2023/09/15 08:08:13;;;;;;;7.10;6.50;;;20.90;99.90;;;22.30;62.04;98127.75;10340834;28;20238;-82
2023/09/15 08:13:16;;;;;;;7.32;6.53;;;21.60;99.90;;;22.62;60.80;98119.50;10337962;28;20223;-81
2023/09/15 08:18:19;;;;;;;7.00;6.38;;;21.90;99.90;;;22.90;60.79;98125.97;10343605;28;20255;-81
2023/09/15 08:23:24;;;;;;;7.57;6.97;;;22.10;99.90;;;23.11;59.91;98120.16;10349802;28;20227;-82
2023/09/15 08:28:27;;;;;;;6.88;6.20;;;22.30;99.90;;;23.54;59.08;98115.38;10339509;28;20280;-80
2023/09/15 08:33:31;;;;;;;6.88;6.30;;;22.70;99.90;;;23.80;58.76;98113.91;10333810;28;20314;-82
2023/09/15 08:38:35;;;;;;;6.38;5.80;;;23.20;99.90;;;24.24;57.23;98116.00;10337738;28;20785;-81
2023/09/15 08:43:39;;;;;;;7.05;6.35;;;23.50;99.90;;;24.20;56.95;98111.63;10341442;28;20290;-80
2023/09/15 08:48:49;;;;;;;6.75;6.20;;;23.60;99.90;;;24.20;57.53;98101.16;10337789;28;20242;-80
2023/09/15 08:53:56;;;;;;;6.85;6.25;;;23.40;99.90;;;24.42;57.88;98098.69;10349353;28;20233;-81
2023/09/15 08:59:00;;;;;;;6.72;6.22;;;23.80;99.90;;;24.51;56.92;98101.41;10339833;28;20231;-81
2023/09/15 09:04:04;;;;;;;6.63;6.03;;;23.80;99.90;;;24.58;57.12;98090.13;10337650;28;20233;-81
2023/09/15 09:09:10;;;;;;;6.82;6.22;;;23.80;99.90;;;24.86;56.58;98079.75;10340276;28;20234;-81
2023/09/15 09:14:13;;;;;;;7.05;6.00;;;24.30;99.90;;;25.17;55.67;98073.78;10334413;28;20757;-81
2023/09/15 09:19:17;;;;;;;7.07;6.25;;;24.50;99.90;;;25.30;57.90;98060.75;10344206;28;20230;-81
2023/09/15 09:24:24;;;;;;;6.45;5.95;;;24.80;99.90;;;25.57;55.02;98060.75;10346102;28;20590;-81
2023/09/15 09:29:28;;;;;;;6.75;6.25;;;25.00;99.90;;;25.65;53.98;98059.91;10342526;28;20297;-81
2023/09/15 09:34:33;;;;;;;7.03;6.47;;;25.00;99.90;;;25.70;54.46;98053.81;10341276;28;20230;-82
2023/09/15 09:39:53;;;;;;;6.60;6.10;;;25.10;99.90;;;25.76;53.97;98050.31;10349447;28;20230;-82
2023/09/15 09:44:56;;;;;;;6.55;6.05;;;25.10;99.90;;;26.18;54.02;98046.81;10345297;28;20226;-81
2023/09/15 09:50:04;;;;;;;7.00;6.30;;;25.70;99.90;;;26.30;53.09;98038.03;10339485;28;20735;-81
2023/09/15 09:55:11;;;;;;;6.53;5.90;;;25.70;99.40;;;26.26;52.65;98041.53;10343037;28;20234;-81
2023/09/15 10:00:18;;;;;;;6.72;6.20;;;25.80;98.70;;;26.18;53.18;98032.81;10340473;28;20274;-82
2023/09/15 10:05:23;;;;;;;6.95;6.45;;;25.70;99.00;;;26.32;52.71;98033.63;10333189;28;20235;-79
2023/09/15 10:10:29;;;;;;;6.53;6.03;;;25.90;98.60;;;26.22;51.79;98024.06;10340862;28;20238;-80
2023/09/15 10:15:32;;;;;;;6.90;6.40;;;25.70;98.10;;;26.06;51.05;98024.09;10339659;28;20226;-81
2023/09/15 10:20:37;;;;;;;6.20;5.70;;;25.60;97.10;;;26.31;49.66;98018.78;10338235;28;20246;-82
2023/09/15 10:25:45;;;;;;;7.07;6.38;;;26.00;96.20;;;25.87;48.94;98011.94;10343937;28;20226;-81
2023/09/15 10:30:48;;;;;;;6.10;5.68;;;25.70;95.40;;;26.47;49.75;98017.88;10329372;28;20223;-82
2023/09/15 10:35:51;;;;;;;7.20;6.57;;;26.00;96.20;;;26.29;49.66;98007.44;10346222;28;20222;-82
2023/09/15 10:40:58;;;;;;;7.57;6.97;;;25.80;96.00;;;26.30;50.30;98011.81;10350112;28;20289;-80
2023/09/15 10:46:04;;;;;;;7.20;6.50;;;25.90;96.40;;;26.32;49.26;97999.56;10340080;28;20246;-82
2023/09/15 10:51:08;;;;;;;7.18;6.57;;;26.00;95.60;;;26.45;49.33;97996.03;10340914;28;20230;-82
2023/09/15 10:56:15;;;;;;;6.97;6.38;;;26.10;95.60;;;26.62;49.07;98003.00;10336170;28;20337;-83
2023/09/15 11:01:20;;;;;;;6.35;5.85;;;26.00;95.60;;;26.96;46.05;97990.56;10329893;28;20222;-81
2023/09/15 11:06:28;;;;;;;5.70;5.30;;;26.40;93.50;;;26.96;46.45;97978.31;10325028;28;20245;-81
2023/09/15 11:11:35;;;;;;;6.03;5.10;;;26.40;93.80;;;26.99;44.79;97976.56;10338269;28;20848;-82
2023/09/15 11:16:38;;;;;;;4.88;4.47;;;26.60;92.60;;;26.76;43.11;97980.19;10336056;28;21006;-81
2023/09/15 11:21:42;;;;;;;4.00;3.70;;;26.30;90.80;;;26.42;41.26;97985.56;10324879;28;20293;-82
2023/09/15 11:26:47;;;;;;;4.53;4.13;;;25.90;88.20;;;26.62;41.41;97980.25;10321474;28;20313;-81
2023/09/15 11:31:53;;;;;;;4.53;4.22;;;26.20;88.20;;;26.04;41.93;97990.91;10331711;28;20266;-82
2023/09/15 11:37:00;;;;;;;4.93;4.43;;;25.60;88.30;;;25.79;42.38;97988.31;10322946;28;20230;-81
2023/09/15 11:42:12;;;;;;;4.82;4.53;;;25.40;89.00;;;26.05;43.15;97971.72;10321122;28;20223;-81
2023/09/15 11:47:16;;;;;;;5.07;4.78;;;25.50;90.20;;;25.96;43.51;97974.34;10328929;28;20234;-81
2023/09/15 11:52:19;;;;;;;5.30;4.90;;;25.50;90.30;;;26.05;44.21;97962.09;10335643;28;20724;-80
2023/09/15 11:57:24;;;;;;;4.90;4.50;;;25.50;91.00;;;25.73;43.90;97961.28;10357982;28;20242;-78
2023/09/15 12:02:27;;;;;;;5.18;4.78;;;25.30;90.50;;;25.78;44.42;97959.50;10344269;28;20234;-81
2023/09/15 12:07:30;;;;;;;5.80;5.40;;;25.40;90.70;;;25.51;45.20;97949.94;10333625;28;20758;-81
2023/09/15 12:12:35;;;;;;;5.93;5.43;;;25.00;91.20;;;25.76;44.70;97948.19;10323880;28;20281;-80
2023/09/15 12:17:42;;;;;;;5.85;5.45;;;25.40;91.10;;;25.67;44.98;97945.53;10329986;28;20239;-81
2023/09/15 12:22:46;;;;;;;5.97;5.47;;;25.20;91.20;;;25.59;45.50;97937.72;10320600;28;20233;-82
2023/09/15 12:27:50;;;;;;;6.07;5.57;;;25.20;91.40;;;25.63;44.93;97937.69;10325758;28;20235;-80
2023/09/15 12:32:54;;;;;;;5.85;5.32;;;25.10;91.00;;;25.41;45.32;97933.38;10321088;28;20310;-82
2023/09/15 12:37:57;;;;;;;5.80;5.30;;;25.00;91.30;;;25.72;46.21;97930.72;10334104;28;20318;-80
2023/09/15 12:43:02;;;;;;;6.00;5.53;;;25.20;92.00;;;25.88;45.89;97927.22;10330708;28;20250;-81
2023/09/15 12:48:06;;;;;;;5.93;5.47;;;25.40;91.80;;;25.79;46.22;97898.41;10319959;28;20227;-79
2023/09/15 12:53:09;;;;;;;6.53;6.03;;;25.30;92.10;;;25.30;47.54;97914.22;10328994;28;20223;-81
2023/09/15 12:58:14;;;;;;;6.18;5.75;;;24.90;92.80;;;25.50;47.32;97915.06;10325431;28;20226;-80
2023/09/15 13:03:17;;;;;;;6.63;6.13;;;24.90;92.80;;;25.65;46.69;97915.91;10332373;28;20338;-82
2023/09/15 13:08:24;;;;;;;7.07;6.38;;;25.10;92.30;;;25.36;48.44;97903.72;10324339;28;20239;-81
2023/09/15 13:13:29;;;;;;;6.57;6.00;;;24.90;93.10;;;25.32;47.76;97894.13;10323225;28;20264;-79
2023/09/15 13:18:32;;;;;;;6.70;6.20;;;24.80;93.20;;;25.28;48.27;97871.47;10329767;28;20233;-83
2023/09/15 13:23:36;;;;;;;6.95;6.25;;;24.70;93.50;;;25.34;48.36;97881.91;10322669;28;20223;-83
2023/09/15 13:28:40;;;;;;;6.97;6.38;;;24.90;93.40;;;25.34;49.11;97874.94;10332163;28;20710;-81
2023/09/15 13:33:43;;;;;;;7.00;6.43;;;24.80;93.90;;;25.49;48.91;97871.41;10322921;28;20289;-81
2023/09/15 13:38:47;;;;;;;7.68;7.07;;;25.00;93.90;;;25.49;49.20;97865.31;10318852;28;20219;-80
2023/09/15 13:43:52;;;;;;;7.40;6.80;;;25.00;94.20;;;25.52;49.00;97870.53;10332012;28;20230;-78
2023/09/15 13:48:55;;;;;;;8.02;7.32;;;25.10;93.80;;;25.66;49.24;97865.25;10319652;28;20775;-80
2023/09/15 13:53:58;;;;;;;8.32;7.63;;;25.20;93.90;;;25.53;49.66;97869.69;10325625;28;20262;-81
2023/09/15 13:59:03;;;;;;;8.80;8.10;;;25.00;94.60;;;25.26;50.26;97866.22;10313169;28;20269;-80
2023/09/15 14:04:08;;;;;;;8.85;8.15;;;24.60;94.90;;;25.48;51.31;97855.72;10324066;28;20227;-80
2023/09/15 14:09:13;;;;;;;8.00;7.40;;;24.70;96.00;;;25.43;51.35;97853.09;10329820;28;20226;-80
2023/09/15 14:14:18;;;;;;;9.23;8.43;;;24.90;95.60;;;25.45;51.16;97850.50;10313802;28;20262;-79
2023/09/15 14:19:21;;;;;;;8.63;7.90;;;25.00;95.40;;;25.44;51.24;97844.41;10326533;28;20711;-80
2023/09/15 14:24:26;;;;;;;9.65;8.82;;;24.90;95.60;;;25.33;51.37;97843.53;10324632;28;20292;-81
2023/09/15 14:29:31;;;;;;;9.35;8.52;;;24.80;95.90;;;25.22;52.65;97837.47;10336945;28;20230;-80
2023/09/15 14:34:34;;;;;;;8.70;7.93;;;24.60;96.40;;;25.15;52.75;97840.09;10323653;28;20326;-80
2023/09/15 14:39:38;;;;;;;9.43;8.73;;;24.60;96.60;;;25.35;52.61;97823.44;10325557;28;20265;-81
2023/09/15 14:44:42;;;;;;;9.65;8.82;;;24.80;96.40;;;25.48;52.27;97813.84;10321052;28;20308;-78
2023/09/15 14:49:45;;;;;;;9.23;8.50;;;24.90;96.60;;;25.33;53.60;97818.25;10313533;28;20254;-78
2023/09/15 14:54:49;;;;;;;9.60;8.90;;;24.80;97.00;;;25.28;53.15;97817.38;10326874;28;20215;-80
2023/09/15 14:59:53;;;;;;;9.27;8.48;;;24.70;96.80;;;25.30;52.97;97815.63;10313365;28;20289;-78
2023/09/15 15:04:57;;;;;;;8.90;8.20;;;24.70;97.00;;;25.39;53.33;97809.50;10320830;28;20254;-77
2023/09/15 15:10:00;;;;;;;9.77;8.95;;;24.80;97.00;;;25.22;53.39;97820.00;10316976;28;20326;-78
2023/09/15 15:15:07;;;;;;;9.43;8.63;;;24.80;97.10;;;25.43;52.47;97805.97;10296984;28;20245;-78
2023/09/15 15:20:11;;;;;;;8.70;8.00;;;24.80;96.90;;;25.35;52.60;97803.41;10297834;28;20258;-79
2023/09/15 15:25:15;;;;;;;9.75;8.95;;;24.70;96.80;;;25.27;53.48;97793.84;10303976;28;20360;-78
2023/09/15 15:30:19;;;;;;;8.68;8.07;;;24.70;97.20;;;25.28;53.54;97795.56;10306168;28;20304;-78
2023/09/15 15:35:25;;;;;;;8.23;7.63;;;24.70;97.40;;;25.45;53.64;97792.91;10304943;28;20624;-78
2023/09/15 15:40:31;;;;;;;9.65;8.85;;;24.80;97.30;;;25.43;53.41;97787.66;10310377;28;20811;-77
2023/09/15 15:45:37;;;;;;;9.35;8.55;;;24.80;97.60;;;25.24;53.78;97793.81;10311589;28;20235;-79
2023/09/15 15:50:40;;;;;;;8.40;7.72;;;24.70;97.60;;;25.28;54.14;97785.97;10323808;28;20222;-78
2023/09/15 15:55:43;;;;;;;8.43;7.63;;;24.50;97.90;;;25.02;54.81;97786.00;10313676;28;20226;-76
2023/09/15 16:00:48;;;;;;;9.13;8.43;;;24.30;98.20;;;25.04;54.66;97780.75;10309538;28;20250;-78
2023/09/15 16:05:55;;;;;;;8.57;7.88;;;24.30;98.20;;;25.02;54.70;97786.00;10310196;28;20231;-78
2023/09/15 16:11:03;;;;;;;8.57;7.78;;;24.30;98.40;;;24.97;54.53;97785.13;10313264;28;20226;-78
2023/09/15 16:16:08;;;;;;;7.82;7.22;;;24.30;98.50;;;25.11;54.28;97785.09;10310755;28;20707;-80
2023/09/15 16:21:11;;;;;;;7.32;6.82;;;24.40;98.30;;;24.90;55.34;97783.41;10304480;28;20326;-78
2023/09/15 16:26:14;;;;;;;7.25;6.72;;;24.20;98.70;;;24.98;54.76;97789.50;10310051;28;20237;-79
2023/09/15 16:31:19;;;;;;;6.75;6.35;;;24.20;98.30;;;24.88;54.83;97790.38;10321446;28;20672;-78
2023/09/15 16:36:22;;;;;;;7.05;6.35;;;24.10;98.70;;;24.79;55.13;97785.16;10311043;28;20334;-78
2023/09/15 16:41:27;;;;;;;7.13;6.53;;;24.00;99.00;;;24.72;56.05;97786.88;10333216;28;20230;-78
2023/09/15 16:46:36;;;;;;;7.15;6.57;;;23.90;99.30;;;24.62;56.49;97785.16;10315396;28;20231;-77
2023/09/15 16:51:40;;;;;;;7.25;6.75;;;23.70;99.70;;;24.57;56.48;97785.16;10315617;28;20345;-78
2023/09/15 16:56:43;;;;;;;7.38;6.68;;;23.70;99.90;;;24.47;57.39;97779.06;10303510;28;20760;-82
2023/09/15 17:01:48;;;;;;;6.57;6.13;;;23.60;99.90;;;24.34;57.83;97795.53;10311889;28;20408;-78
2023/09/15 17:06:51;;;;;;;6.60;6.15;;;23.50;99.90;;;24.24;58.10;97786.84;10297673;28;20230;-76
2023/09/15 17:11:54;;;;;;;7.13;6.63;;;23.40;99.90;;;24.01;60.46;97793.75;10301522;28;20258;-77
2023/09/15 17:16:59;;;;;;;7.30;6.78;;;23.10;99.90;;;23.76;61.71;97793.66;10301191;28;20357;-78
2023/09/15 17:22:03;;;;;;;7.63;6.93;;;22.90;99.90;;;23.66;62.71;97790.97;10296690;28;20247;-78
2023/09/15 17:27:06;;;;;;;7.40;6.80;;;22.80;99.90;;;23.55;64.70;97786.59;10307588;28;20227;-79
2023/09/15 17:32:11;;;;;;;7.32;6.72;;;22.60;99.90;;;23.32;66.48;97788.19;10296218;28;20868;-77
2023/09/15 17:37:15;;;;;;;7.97;7.30;;;22.30;99.90;;;23.05;68.01;97781.09;10296943;28;20231;-79
2023/09/15 17:42:18;;;;;;;7.03;6.53;;;22.00;99.90;;;22.80;69.07;97780.03;10328494;28;20563;-78
2023/09/15 17:47:23;;;;;;;8.60;7.85;;;21.80;99.90;;;22.43;71.85;97774.50;10325657;28;20223;-79
2023/09/15 17:52:26;;;;;;;8.07;7.47;;;21.40;99.90;;;22.26;72.04;97779.56;10317944;28;20249;-78
2023/09/15 17:57:30;;;;;;;8.55;7.85;;;21.30;99.90;;;22.04;73.99;97796.69;10320817;28;20305;-78
2023/09/15 18:02:36;;;;;;;9.05;8.15;;;21.10;99.90;;;21.90;75.43;97804.34;10325036;28;20239;-77
2023/09/15 18:07:40;;;;;;;8.65;7.95;;;20.90;99.90;;;21.71;76.22;97813.66;10322636;28;20231;-79
2023/09/15 18:12:43;;;;;;;8.75;8.05;;;20.70;99.90;;;21.59;77.12;97814.38;10326090;28;20661;-79
2023/09/15 18:17:48;;;;;;;9.60;8.80;;;20.60;99.90;;;21.51;77.87;97823.81;10328912;28;20246;-79
2023/09/15 18:22:52;;;;;;;14.45;13.13;;;20.50;99.90;;;21.36;79.35;97828.78;10315390;28;20219;-79
2023/09/15 18:27:55;;;;;;;11.18;10.27;;;20.40;99.90;;;21.24;80.02;97836.41;10319065;28;20258;-79
2023/09/15 18:33:01;;;;;;;10.82;10.02;;;20.30;99.90;;;21.11;80.54;97830.13;10315466;28;20738;-77
2023/09/15 18:38:05;;;;;;;10.20;9.40;;;20.20;99.90;;;20.97;80.67;97840.31;10332696;28;20451;-83
2023/09/15 18:43:08;;;;;;;8.93;8.23;;;20.00;99.90;;;20.94;80.59;97837.69;10333311;28;20218;-84
2023/09/15 18:48:13;;;;;;;9.10;8.40;;;20.00;99.90;;;20.77;81.09;97844.31;10329836;28;20614;-80
2023/09/15 18:53:18;;;;;;;7.65;7.10;;;19.80;99.90;;;20.66;81.07;97850.25;10331519;28;20223;-83
2023/09/15 18:58:22;;;;;;;7.95;7.35;;;19.70;99.90;;;20.47;81.02;97855.91;10330882;28;20257;-84
2023/09/15 19:03:27;;;;;;;7.90;7.30;;;19.60;99.90;;;20.33;81.52;97850.47;10336913;28;20235;-84
2023/09/15 19:08:30;;;;;;;7.43;6.82;;;19.40;99.90;;;20.26;81.55;97846.03;10338409;28;20230;-82
2023/09/15 19:13:34;;;;;;;8.10;7.43;;;19.40;99.90;;;20.18;81.86;97852.78;10344170;28;20241;-83
2023/09/15 19:18:46;;;;;;;7.13;6.63;;;19.30;99.90;;;20.03;82.75;97853.38;10344734;28;20229;-83
2023/09/15 19:23:50;;;;;;;8.10;7.50;;;19.10;99.90;;;19.94;83.69;97859.22;10349904;28;20235;-83
2023/09/15 19:28:53;;;;;;;8.23;7.53;;;19.00;99.90;;;19.75;84.14;97852.81;10346893;28;20321;-83
2023/09/15 19:33:58;;;;;;;7.35;6.78;;;18.90;99.90;;;19.63;84.21;97844.75;10351616;28;20261;-83
2023/09/15 19:39:03;;;;;;;8.00;7.30;;;18.70;99.90;;;19.51;84.51;97841.88;10352125;28;20696;-82
2023/09/15 19:44:06;;;;;;;7.85;7.15;;;18.60;99.90;;;19.46;84.70;97843.50;10349014;28;20219;-82
2023/09/15 19:49:11;;;;;;;8.88;8.07;;;18.60;99.90;;;19.25;86.55;97842.19;10350517;28;20273;-83
2023/09/15 19:54:15;;;;;;;8.65;7.90;;;18.40;99.90;;;19.15;86.83;97831.59;10344399;28;20227;-82
2023/09/15 19:59:19;;;;;;;7.63;6.95;;;18.30;99.90;;;19.17;86.61;97829.88;10353757;28;20227;-83
2023/09/15 20:04:23;;;;;;;8.40;7.75;;;18.30;99.90;;;18.87;88.18;97825.75;10352389;28;20229;-82
2023/09/15 20:09:29;;;;;;;9.23;8.43;;;18.10;99.90;;;18.80;89.33;97819.56;10354567;28;20222;-83
2023/09/15 20:14:34;;;;;;;9.70;8.90;;;18.10;99.90;;;18.67;90.22;97828.69;10340498;28;20235;-83
2023/09/15 20:19:42;;;;;;;9.15;8.43;;;17.90;99.90;;;18.68;90.08;97833.06;10348223;28;20238;-83
2023/09/15 20:24:46;;;;;;;9.82;9.02;;;18.00;99.90;;;18.51;91.64;97838.63;10346366;28;20211;-83
2023/09/15 20:29:49;;;;;;;9.10;8.35;;;17.80;99.90;;;18.57;90.95;97838.78;10341525;28;20302;-83
2023/09/15 20:34:55;;;;;;;9.32;8.63;;;17.80;99.90;;;18.54;91.13;97837.03;10341601;28;20215;-83
2023/09/15 20:39:58;;;;;;;9.07;8.27;;;17.80;99.90;;;18.54;91.07;97834.44;10345836;28;20227;-83
2023/09/15 20:45:03;;;;;;;9.38;8.63;;;17.80;99.90;;;18.63;90.93;97841.56;10349911;28;20689;-83
2023/09/15 20:50:09;;;;;;;8.90;8.23;;;17.80;99.90;;;18.46;91.65;97834.22;10339358;28;20236;-83
2023/09/15 20:55:12;;;;;;;9.55;8.80;;;17.70;99.90;;;18.44;91.80;97833.31;10356271;28;20250;-82
2023/09/15 21:00:16;;;;;;;9.27;8.57;;;17.60;99.90;;;18.26;92.35;97834.53;10357155;28;20254;-82
2023/09/15 21:05:20;;;;;;;10.00;9.20;;;17.40;99.90;;;18.15;92.58;97839.44;10342650;28;20269;-82
2023/09/15 21:10:24;;;;;;;9.73;8.82;;;17.30;99.90;;;18.03;93.26;97837.41;10338657;28;20277;-82